createdAt,value
2023-02-24T00:02:53.921Z,20.85
2023-02-24T00:07:55.392Z,23.15
2023-02-24T00:12:56.814Z,19.52
2023-02-24T00:17:58.884Z,20.17
2023-02-24T00:23:03.965Z,18.75
2023-02-24T00:28:05.289Z,17.38
2023-02-24T00:33:07.092Z,17.58
2023-02-24T00:38:08.613Z,19.65
2023-02-24T00:43:11.322Z,18.40
2023-02-24T00:48:15.347Z,18.40
2023-02-24T00:53:18.597Z,14.75
2023-02-24T00:58:20.767Z,16.30
2023-02-24T01:03:23.111Z,17.30
2023-02-24T01:08:24.844Z,16.50
2023-02-24T01:13:27.460Z,19.52
2023-02-24T01:18:31.747Z,15.88
2023-02-24T01:23:33.416Z,14.48
2023-02-24T01:28:35.442Z,16.90
2023-02-24T01:33:39.572Z,14.73
2023-02-24T01:38:42.239Z,12.88
2023-02-24T01:44:06.130Z,12.18
2023-02-24T01:49:15.879Z,12.05
2023-02-24T01:54:21.079Z,13.57
2023-02-24T01:59:26.115Z,12.02
2023-02-24T02:04:45.314Z,12.40
2023-02-24T02:09:48.398Z,10.43
2023-02-24T02:14:53.544Z,11.27
2023-02-24T02:20:20.441Z,11.52
2023-02-24T02:25:40.481Z,11.25
2023-02-24T02:31:04.262Z,10.80
2023-02-24T02:36:31.751Z,11.40
2023-02-24T02:41:53.628Z,11.88
2023-02-24T02:47:24.349Z,11.93
2023-02-24T02:52:47.446Z,10.70
2023-02-24T02:57:52.300Z,11.13
2023-02-24T03:03:04.127Z,11.40
2023-02-24T03:08:11.810Z,12.85
2023-02-24T03:13:16.481Z,11.88
2023-02-24T03:18:32.218Z,13.65
2023-02-24T03:23:50.567Z,9.48
2023-02-24T03:28:59.493Z,9.35
2023-02-24T03:34:10.267Z,10.32
2023-02-24T03:39:12.642Z,11.52
2023-02-24T03:44:14.998Z,9.38
2023-02-24T03:49:16.654Z,10.98
2023-02-24T03:54:44.841Z,10.23
2023-02-24T04:00:26.287Z,11.52
2023-02-24T04:05:32.699Z,11.77
2023-02-24T04:10:41.180Z,11.15
2023-02-24T04:15:47.300Z,18.20
2023-02-24T04:20:53.660Z,19.60
2023-02-24T04:25:58.044Z,16.88
2023-02-24T04:31:10.129Z,17.98
2023-02-24T04:36:12.820Z,18.48
2023-02-24T04:41:21.953Z,19.05
2023-02-24T04:46:26.366Z,19.67
2023-02-24T04:51:31.892Z,21.13
2023-02-24T04:56:33.522Z,22.23
2023-02-24T05:01:34.973Z,21.33
2023-02-24T05:06:41.236Z,20.33
2023-02-24T05:11:44.528Z,19.83
2023-02-24T05:16:48.395Z,21.40
2023-02-24T05:21:50.218Z,25.40
2023-02-24T05:26:58.104Z,25.65
2023-02-24T05:32:00.339Z,21.20
2023-02-24T05:37:10.093Z,18.77
2023-02-24T05:42:11.648Z,24.60
2023-02-24T05:47:13.084Z,21.80
2023-02-24T05:52:14.796Z,19.83
2023-02-24T05:57:21.541Z,23.85
2023-02-24T06:02:29.447Z,20.30
2023-02-24T06:07:34.926Z,19.50
2023-02-24T06:12:39.807Z,20.88
2023-02-24T06:17:41.382Z,22.70
2023-02-24T06:22:43.035Z,23.85
2023-02-24T06:27:44.910Z,21.08
2023-02-24T06:32:46.388Z,22.00
2023-02-24T06:37:48.041Z,24.83
2023-02-24T06:42:54.264Z,23.05
2023-02-24T06:47:55.915Z,23.65
2023-02-24T06:53:00.682Z,25.88
2023-02-24T06:58:06.471Z,21.42
2023-02-24T07:03:16.965Z,20.50
2023-02-24T07:08:23.505Z,23.02
2023-02-24T07:13:29.911Z,22.73
2023-02-24T07:18:31.377Z,23.65
2023-02-24T07:23:32.787Z,19.40
2023-02-24T07:28:34.466Z,22.85
2023-02-24T07:33:36.883Z,21.02
2023-02-24T07:38:39.303Z,20.52
2023-02-24T07:43:42.226Z,21.38
2023-02-24T07:48:43.919Z,21.92
2023-02-24T07:53:51.578Z,23.30
2023-02-24T07:59:03.031Z,20.25
2023-02-24T08:04:08.142Z,19.52
2023-02-24T08:09:21.167Z,18.88
2023-02-24T08:14:35.032Z,22.83
2023-02-24T08:19:40.096Z,23.23
2023-02-24T08:24:45.392Z,21.75
2023-02-24T08:30:03.728Z,25.65
2023-02-24T08:35:15.486Z,23.85
2023-02-24T08:40:34.155Z,24.30
2023-02-24T08:45:38.477Z,19.70
2023-02-24T08:50:40.037Z,22.45
2023-02-24T08:55:42.789Z,19.40
2023-02-24T09:00:49.591Z,17.23
2023-02-24T09:05:51.026Z,17.20
2023-02-24T09:10:52.421Z,18.13
2023-02-24T09:15:54.158Z,19.38
2023-02-24T09:21:36.941Z,13.05
2023-02-24T09:26:44.339Z,13.95
2023-02-24T09:31:55.412Z,13.00
2023-02-24T09:37:03.890Z,12.80
2023-02-24T09:42:12.490Z,14.65
2023-02-24T09:47:31.520Z,16.02
2023-02-24T09:52:43.043Z,16.40
2023-02-24T09:58:09.369Z,14.73
2023-02-24T10:03:25.035Z,13.68
2023-02-24T10:08:33.433Z,15.30
2023-02-24T10:13:38.688Z,16.25
2023-02-24T10:19:01.046Z,16.05
2023-02-24T10:24:14.665Z,17.52
2023-02-24T10:29:29.640Z,13.85
2023-02-24T10:34:34.488Z,12.30
2023-02-24T10:39:36.017Z,13.95
2023-02-24T10:44:38.889Z,12.07
2023-02-24T10:49:42.985Z,12.50
2023-02-24T10:55:05.130Z,11.48
2023-02-24T11:00:31.160Z,14.02
2023-02-24T11:06:01.859Z,11.63
2023-02-24T11:11:20.479Z,11.85
2023-02-24T11:16:54.348Z,10.98
2023-02-24T11:21:56.861Z,12.07
2023-02-24T11:26:58.655Z,12.93
2023-02-24T11:32:48.545Z,10.27
2023-02-24T11:38:08.104Z,12.07
2023-02-24T11:43:20.723Z,8.60
2023-02-24T11:48:28.265Z,10.07
2023-02-24T11:53:46.274Z,11.55
2023-02-24T11:59:01.168Z,8.88
2023-02-24T12:04:18.800Z,11.25
2023-02-24T12:09:26.396Z,11.18
2023-02-24T12:14:45.331Z,10.20
2023-02-24T12:19:57.746Z,8.68
2023-02-24T12:24:59.373Z,9.48
2023-02-24T12:30:06.503Z,10.63
2023-02-24T12:35:53.368Z,10.55
2023-02-24T12:41:06.495Z,10.25
2023-02-24T12:46:38.475Z,10.55
2023-02-24T12:52:20.684Z,10.52
2023-02-24T12:57:34.518Z,10.77
2023-02-24T13:03:00.704Z,13.30
2023-02-24T13:08:08.248Z,12.15
2023-02-24T13:13:19.616Z,17.65
2023-02-24T13:18:34.978Z,19.75
2023-02-24T13:23:40.303Z,14.63
2023-02-24T13:28:43.068Z,11.15
2023-02-24T13:33:45.557Z,10.05
2023-02-24T13:39:03.614Z,12.32
2023-02-24T13:44:25.076Z,12.90
2023-02-24T13:49:35.717Z,10.07
2023-02-24T13:55:11.112Z,13.18
2023-02-24T14:00:32.941Z,11.05
2023-02-24T14:05:36.322Z,10.30
2023-02-24T14:10:39.099Z,11.90
2023-02-24T14:15:43.951Z,11.38
2023-02-24T14:20:46.153Z,10.25
2023-02-24T14:25:49.689Z,11.90
2023-02-24T14:30:54.900Z,10.90
2023-02-24T14:35:57.311Z,8.13
2023-02-24T14:40:58.730Z,8.93
2023-02-24T14:46:05.780Z,9.57
2023-02-24T14:51:12.812Z,9.00
2023-02-24T14:56:15.640Z,6.63
2023-02-24T15:01:25.193Z,9.30
2023-02-24T15:06:32.762Z,7.18
2023-02-24T15:11:37.108Z,7.88
2023-02-24T15:16:43.748Z,8.30
2023-02-24T15:21:45.228Z,7.28
2023-02-24T15:26:56.961Z,7.50
2023-02-24T15:32:00.634Z,8.07
2023-02-24T15:37:15.179Z,10.17
2023-02-24T15:42:16.837Z,6.68
2023-02-24T15:47:27.198Z,8.40
2023-02-24T15:52:29.671Z,6.70
2023-02-24T15:57:32.494Z,8.98
2023-02-24T16:02:33.925Z,7.50
2023-02-24T16:07:38.073Z,7.15
2023-02-24T16:12:46.622Z,6.63
2023-02-24T16:17:48.702Z,6.65
2023-02-24T16:22:50.078Z,7.38
2023-02-24T16:27:57.438Z,5.75
2023-02-24T16:33:01.371Z,7.63
2023-02-24T16:38:02.965Z,6.30
2023-02-24T16:43:04.888Z,6.00
2023-02-24T16:48:16.500Z,7.32
2023-02-24T16:53:23.645Z,5.07
2023-02-24T16:58:25.575Z,6.38
2023-02-24T17:03:33.466Z,6.22
2023-02-24T17:08:35.656Z,5.55
2023-02-24T17:13:37.041Z,6.63
2023-02-24T17:18:38.410Z,5.13
2023-02-24T17:23:40.043Z,6.85
2023-02-24T17:28:43.793Z,5.78
2023-02-24T17:33:45.247Z,8.15
2023-02-24T17:38:47.763Z,6.22
2023-02-24T17:43:53.602Z,6.05
2023-02-24T17:48:55.163Z,4.85
2023-02-24T17:53:57.071Z,4.43
2023-02-24T17:59:00.843Z,4.75
2023-02-24T18:04:02.282Z,6.15
2023-02-24T18:09:03.720Z,4.55
2023-02-24T18:14:06.198Z,5.13
2023-02-24T18:19:08.151Z,3.45
2023-02-24T18:24:10.102Z,3.10
2023-02-24T18:29:11.947Z,4.68
2023-02-24T18:34:13.381Z,4.30
2023-02-24T18:39:15.115Z,4.63
2023-02-24T18:44:16.797Z,4.53
2023-02-24T18:49:18.538Z,5.82
2023-02-24T18:54:20.301Z,3.95
2023-02-24T18:59:21.733Z,4.25
2023-02-24T19:04:26.167Z,4.45
2023-02-24T19:09:29.083Z,4.30
2023-02-24T19:14:31.622Z,4.93
2023-02-24T19:19:33.179Z,4.45
2023-02-24T19:24:35.029Z,4.30
2023-02-24T19:29:36.397Z,6.00
2023-02-24T19:34:38.234Z,3.35
2023-02-24T19:39:40.053Z,4.40
2023-02-24T19:44:41.655Z,6.78
2023-02-24T19:49:43.372Z,7.95
2023-02-24T19:54:44.746Z,7.55
2023-02-24T19:59:46.307Z,7.68
2023-02-24T20:04:48.271Z,10.02
2023-02-24T20:09:49.916Z,8.18
2023-02-24T20:14:51.442Z,5.13
2023-02-24T20:19:53.377Z,6.50
2023-02-24T20:24:55.399Z,7.28
2023-02-24T20:29:57.192Z,6.10
2023-02-24T20:34:59.008Z,6.22
2023-02-24T20:40:00.925Z,5.25
2023-02-24T20:45:03.397Z,8.68
2023-02-24T20:50:05.948Z,6.18
2023-02-24T20:55:10.146Z,6.68
2023-02-24T21:00:12.311Z,6.73
2023-02-24T21:05:20.389Z,7.25
2023-02-24T21:10:26.370Z,6.97
2023-02-24T21:15:28.120Z,9.73
2023-02-24T21:20:30.412Z,7.88
2023-02-24T21:25:32.267Z,6.40
2023-02-24T21:30:33.655Z,10.05
2023-02-24T21:35:35.298Z,10.00
2023-02-24T21:40:37.373Z,8.30
2023-02-24T21:45:39.704Z,9.43
2023-02-24T21:50:41.316Z,8.23
2023-02-24T21:55:43.033Z,8.30
2023-02-24T22:00:44.719Z,7.10
2023-02-24T22:05:49.959Z,7.25
2023-02-24T22:11:01.560Z,9.30
2023-02-24T22:16:11.401Z,6.25
2023-02-24T22:21:17.260Z,7.65
2023-02-24T22:26:20.044Z,6.00
2023-02-24T22:31:24.254Z,3.50
2023-02-24T22:36:29.299Z,4.17
2023-02-24T22:41:33.920Z,3.65
2023-02-24T22:46:37.588Z,3.88
2023-02-24T22:51:39.275Z,3.08
2023-02-24T22:56:40.674Z,2.72
2023-02-24T23:01:42.873Z,2.80
2023-02-24T23:06:44.900Z,2.78
2023-02-24T23:11:47.605Z,3.58
2023-02-24T23:16:54.737Z,3.45
2023-02-24T23:21:57.062Z,2.75
2023-02-24T23:26:58.730Z,3.17
2023-02-24T23:32:00.274Z,4.25
2023-02-24T23:37:01.881Z,3.72
2023-02-24T23:42:03.365Z,4.85
2023-02-24T23:47:06.209Z,5.43
2023-02-24T23:52:08.545Z,3.05
2023-02-24T23:57:10.174Z,5.00
